Wilkes Barre Scranton International Airport
KAVP : now visible

Airfield :











YOU CAN JOIN US ON...

 
LOGIN :

Register | Disclaimer

   EN    FR    IT 

 









Legend :    VFR   Marginal VFR   IFR   Intensive IFR   Very Intensive IFR
Visi :
Ceiling :
>= 8 km
>= 3000ft
5 to 8 km
1000 to 3000 ft
1500m to 5 km
500 to 1000 ft
800 to 1500m
200 to 500 ft
< 800m
< 200 ft
Symbols :   Thunderstorms  Fog  Heavy snow  Heavy precipitations  Wind > 20 kt






- Airport Elevation : 962 ft
- IATA code : AVP


KAVP - Wilkes Barre Scranton International

CURRENT METAR :
  • 090154Z 22004KT 10SM CLR 24/19 A2997 RMK AO2 SLP140 T02390194

EXPIRED METARs :
  • 090054Z 00000KT 10SM FEW043 24/21 A2998 RMK AO2 RAE2357 SLP142 P0000 T02390206
  • 082354Z 22005KT 10SM -RA FEW035 SCT048 SCT070 24/21 A2998 RMK AO2 LTG DSNT W RAB22 SLP143 P0000 60000 T02390206 10300 20239 53008
  • 082347Z VRB05KT 5SM -RA SCT037 BKN048 BKN070 24/20 A2998 RMK AO2 LTG DSNT W RAB22 P0000 T02440200
  • 082333Z 25004KT 9SM VCTS -RA FEW048 BKN110 26/19 A2999 RMK AO2 RAB22 P0000 T02610194

TAF KAVP
Valid from the 09 at 00:00 until the 10 at 00:00 UTC


082340Z 0900/0924 19004KT P6SM BKN050
FM090600 VRB02KT 4SM BR SCT050
TEMPO 0909/0912 2SM BR
FM091200 VRB03KT P6SM SCT040
KZNY FIR / North America



MET'MAP, your aeronautical weather chart ! - Copyright ORBIFLY December 2007 - Disclaimer

ORBIFLY MET'MAP TEAM :

Programming & Development : Alexandra Zaïnal
Concept & original design : Baudouin d'Aumeries
Assistance for programming : Marc-Olivier Méhu
Technical & hardware support : Manuel Goepfert

Contact : metmap@orbifly.com




SOURCES & CREDITS :

   NOAA       Earth
Advisory